Scott AFB/Midamerica Airport
KBLV : now visible

Airfield :











YOU CAN JOIN US ON...

 
LOGIN :

Register | Disclaimer

   EN    FR    IT 

 









Legend :    VFR   Marginal VFR   IFR   Intensive IFR   Very Intensive IFR
Visi :
Ceiling :
>= 8 km
>= 3000ft
5 to 8 km
1000 to 3000 ft
1500m to 5 km
500 to 1000 ft
800 to 1500m
200 to 500 ft
< 800m
< 200 ft
Symbols :   Thunderstorms  Fog  Heavy snow  Heavy precipitations  Wind > 20 kt






- Airport Elevation : 459 ft


KBLV - Scott AFB/Midamerica

CURRENT METAR :
  • 130356Z AUTO 14004KT 10SM CLR 00/M04 A3009 RMK AO2 SLP196 T10011040 $

EXPIRED METARs :
  • 130256Z AUTO 00000KT 10SM CLR 03/M03 A3011 RMK AO2 SLP203 T00251034 56011 $

TAF TAF KBLV
Valid from the 13 at 00:00 until the 14 at 06:00 UTC


130000Z 1300/1406 15009KT 9999 SKC QNH3011INS TX05/1320Z TN00/1305Z



MET'MAP, your aeronautical weather chart ! - Copyright ORBIFLY December 2007 - Disclaimer

ORBIFLY MET'MAP TEAM :

Programming & Development : Alexandra Zaïnal
Concept & original design : Baudouin d'Aumeries
Assistance for programming : Marc-Olivier Méhu
Technical & hardware support : Manuel Goepfert

Contact : metmap@orbifly.com




SOURCES & CREDITS :

   NOAA       Earth
Advisory